createdAt,value
2018-11-02T00:00:54.232Z,23.83
2018-11-02T00:01:59.872Z,24.60
2018-11-02T00:03:05.857Z,23.30
2018-11-02T00:04:11.353Z,24.60
2018-11-02T00:05:17.141Z,23.13
2018-11-02T00:06:22.885Z,26.10
2018-11-02T00:07:28.250Z,25.03
2018-11-02T00:08:36.572Z,25.50
2018-11-02T00:09:42.080Z,26.10
2018-11-02T00:10:47.567Z,24.67
2018-11-02T00:11:53.173Z,22.80
2018-11-02T00:12:59.130Z,22.03
2018-11-02T00:14:04.823Z,24.80
2018-11-02T00:15:10.355Z,23.23
2018-11-02T00:16:15.820Z,22.60
2018-11-02T00:17:21.288Z,26.00
2018-11-02T00:18:26.741Z,25.37
2018-11-02T00:19:33.434Z,22.90
2018-11-02T00:20:38.965Z,23.30
2018-11-02T00:21:44.461Z,25.40
2018-11-02T00:22:49.896Z,23.63
2018-11-02T00:23:55.418Z,23.70
2018-11-02T00:25:00.918Z,25.30
2018-11-02T00:26:06.745Z,24.00
2018-11-02T00:27:12.421Z,22.90
2018-11-02T00:28:17.921Z,22.57
2018-11-02T00:29:23.429Z,25.80
2018-11-02T00:30:28.916Z,22.70
2018-11-02T00:31:34.392Z,25.97
2018-11-02T00:32:40.623Z,25.13
2018-11-02T00:33:46.073Z,22.40
2018-11-02T00:34:51.568Z,24.10
2018-11-02T00:35:57.017Z,33.63
2018-11-02T00:37:02.714Z,22.37
2018-11-02T00:38:08.228Z,27.50
2018-11-02T00:39:13.718Z,23.77
2018-11-02T00:40:19.264Z,23.83
2018-11-02T00:41:24.837Z,24.87
2018-11-02T00:42:30.672Z,25.60
2018-11-02T00:43:36.189Z,25.30
2018-11-02T00:44:41.642Z,27.80
2018-11-02T00:45:47.130Z,23.63
2018-11-02T00:46:52.608Z,26.20
2018-11-02T00:47:58.040Z,26.83
2018-11-02T00:49:04.152Z,24.60
2018-11-02T00:50:11.737Z,26.20
2018-11-02T00:51:17.204Z,25.07
2018-11-02T00:52:22.717Z,24.37
2018-11-02T00:53:28.192Z,24.00
2018-11-02T00:54:33.653Z,23.40
2018-11-02T00:55:39.118Z,24.60
2018-11-02T00:56:44.685Z,27.43
2018-11-02T00:57:50.278Z,26.87
2018-11-02T00:58:56.258Z,29.57
2018-11-02T01:00:02.212Z,27.13
2018-11-02T01:01:07.697Z,28.67
2018-11-02T01:02:13.133Z,24.97
2018-11-02T01:03:18.679Z,26.67
2018-11-02T01:04:24.137Z,23.77
2018-11-02T01:05:29.714Z,24.70
2018-11-02T01:06:35.222Z,27.20
2018-11-02T01:07:40.826Z,25.23
2018-11-02T01:08:46.328Z,27.57
2018-11-02T01:09:51.793Z,28.97
2018-11-02T01:10:57.237Z,30.43
2018-11-02T01:12:02.712Z,25.20
2018-11-02T01:13:08.225Z,26.87
2018-11-02T01:14:13.745Z,28.03
2018-11-02T01:15:19.240Z,25.50
2018-11-02T01:16:24.752Z,22.60
2018-11-02T01:17:30.325Z,27.80
2018-11-02T01:18:35.805Z,27.30
2018-11-02T01:19:41.260Z,26.97
2018-11-02T01:20:46.708Z,24.10
2018-11-02T01:21:52.310Z,29.33
2018-11-02T01:22:57.796Z,26.00
2018-11-02T01:24:03.403Z,27.67
2018-11-02T01:25:09.588Z,27.93
2018-11-02T01:26:15.198Z,27.03
2018-11-02T01:27:20.779Z,26.87
2018-11-02T01:28:26.232Z,26.33
2018-11-02T01:29:31.727Z,28.37
2018-11-02T01:30:37.225Z,28.00
2018-11-02T01:31:42.824Z,22.77
2018-11-02T01:32:48.260Z,26.70
2018-11-02T01:33:53.798Z,25.77
2018-11-02T01:34:59.406Z,22.03
2018-11-02T01:36:05.102Z,24.50
2018-11-02T01:37:10.585Z,23.13
2018-11-02T01:38:16.036Z,21.93
2018-11-02T01:39:21.723Z,24.73
2018-11-02T01:40:27.220Z,21.50
2018-11-02T01:41:32.644Z,26.53
2018-11-02T01:42:38.090Z,25.40
2018-11-02T01:43:43.691Z,24.67
2018-11-02T01:44:49.178Z,22.13
2018-11-02T01:45:54.899Z,21.70
2018-11-02T01:47:00.396Z,25.73
2018-11-02T01:48:06.342Z,20.70
2018-11-02T01:49:11.838Z,21.53
2018-11-02T01:50:17.375Z,21.07
2018-11-02T01:51:22.918Z,22.57
2018-11-02T01:52:28.384Z,19.03
2018-11-02T01:53:33.883Z,20.30
2018-11-02T01:54:39.485Z,21.30
2018-11-02T01:55:44.956Z,20.53
2018-11-02T01:56:50.455Z,18.73
2018-11-02T01:57:55.896Z,17.90
2018-11-02T01:59:01.386Z,23.90
2018-11-02T02:00:08.409Z,20.50
2018-11-02T02:01:13.897Z,21.87
2018-11-02T02:02:19.558Z,22.23
2018-11-02T02:03:25.058Z,19.67
2018-11-02T02:04:30.625Z,17.30
2018-11-02T02:05:36.157Z,20.20
2018-11-02T02:06:41.713Z,15.13
2018-11-02T02:07:47.201Z,18.40
2018-11-02T02:08:52.773Z,19.17
2018-11-02T02:09:58.256Z,22.23
2018-11-02T02:11:03.681Z,20.97
2018-11-02T02:12:09.161Z,23.77
2018-11-02T02:13:14.637Z,23.40
2018-11-02T02:14:20.104Z,20.70
2018-11-02T02:15:25.617Z,19.13
2018-11-02T02:16:31.072Z,20.43
2018-11-02T02:17:36.629Z,21.80
2018-11-02T02:18:42.102Z,17.97
2018-11-02T02:19:47.613Z,19.70
2018-11-02T02:20:53.090Z,16.23
2018-11-02T02:21:58.580Z,17.70
2018-11-02T02:23:04.037Z,16.07
2018-11-02T02:24:09.522Z,17.90
2018-11-02T02:25:15.010Z,17.03
2018-11-02T02:26:20.468Z,19.60
2018-11-02T02:27:25.942Z,17.07
2018-11-02T02:28:31.622Z,20.37
2018-11-02T02:29:37.390Z,20.33
2018-11-02T02:30:42.862Z,20.33
2018-11-02T02:31:48.349Z,20.23
2018-11-02T02:32:53.886Z,19.33
2018-11-02T02:33:59.384Z,17.03
2018-11-02T02:35:04.985Z,19.77
2018-11-02T02:36:10.601Z,19.87
2018-11-02T02:37:16.025Z,21.03
2018-11-02T02:38:21.572Z,18.63
2018-11-02T02:39:27.065Z,19.67
2018-11-02T02:40:32.576Z,16.93
2018-11-02T02:41:38.285Z,17.40
2018-11-02T02:42:43.730Z,18.80
2018-11-02T02:43:49.349Z,17.23
2018-11-02T02:44:54.799Z,16.63
2018-11-02T02:46:00.270Z,18.30
2018-11-02T02:47:05.904Z,15.50
2018-11-02T02:48:11.503Z,15.80
2018-11-02T02:49:16.998Z,20.80
2018-11-02T02:50:22.485Z,17.30
2018-11-02T02:51:27.993Z,17.80
2018-11-02T02:52:33.472Z,18.20
2018-11-02T02:53:38.882Z,21.73
2018-11-02T02:54:44.386Z,16.13
2018-11-02T02:55:49.836Z,17.00
2018-11-02T02:56:55.389Z,15.77
2018-11-02T02:58:00.890Z,26.83
2018-11-02T02:59:06.378Z,17.60
2018-11-02T03:00:13.768Z,16.37
2018-11-02T03:01:19.289Z,20.40
2018-11-02T03:02:24.875Z,17.30
2018-11-02T03:03:30.317Z,22.20
2018-11-02T03:04:37.001Z,15.80
2018-11-02T03:05:42.440Z,17.37
2018-11-02T03:06:47.913Z,18.80
2018-11-02T03:07:53.467Z,18.13
2018-11-02T03:08:58.992Z,16.77
2018-11-02T03:10:04.662Z,19.63
2018-11-02T03:11:10.335Z,17.60
2018-11-02T03:12:15.682Z,16.83
2018-11-02T03:13:21.168Z,18.77
2018-11-02T03:14:26.637Z,21.43
2018-11-02T03:15:32.084Z,20.40
2018-11-02T03:16:37.560Z,20.63
2018-11-02T03:17:43.002Z,19.27
2018-11-02T03:18:48.992Z,19.07
2018-11-02T03:19:54.426Z,16.93
2018-11-02T03:20:59.928Z,16.70
2018-11-02T03:22:05.672Z,15.93
2018-11-02T03:23:11.174Z,21.77
2018-11-02T03:24:16.725Z,19.33
2018-11-02T03:25:22.285Z,20.13
2018-11-02T03:26:27.755Z,18.80
2018-11-02T03:27:33.245Z,18.70
2018-11-02T03:28:38.750Z,21.90
2018-11-02T03:29:44.302Z,22.40
2018-11-02T03:30:49.725Z,19.33
2018-11-02T03:31:55.207Z,17.27
2018-11-02T03:33:00.632Z,19.83
2018-11-02T03:34:06.525Z,20.53
2018-11-02T03:35:12.046Z,20.97
2018-11-02T03:36:17.481Z,21.17
2018-11-02T03:37:22.970Z,20.37
2018-11-02T03:38:28.472Z,19.80
2018-11-02T03:39:33.962Z,18.40
2018-11-02T03:40:39.448Z,23.80
2018-11-02T03:41:44.898Z,20.77
2018-11-02T03:42:50.389Z,19.10
2018-11-02T03:43:55.812Z,23.03
2018-11-02T03:45:01.298Z,23.20
2018-11-02T03:46:07.101Z,22.67
2018-11-02T03:47:12.600Z,26.40
2018-11-02T03:48:18.175Z,21.43
2018-11-02T03:49:23.624Z,26.53
2018-11-02T03:50:29.106Z,24.33
2018-11-02T03:51:34.590Z,24.07
2018-11-02T03:52:40.472Z,23.27
2018-11-02T03:53:46.025Z,19.20
2018-11-02T03:54:51.883Z,21.50
2018-11-02T03:55:57.685Z,23.37
2018-11-02T03:57:03.296Z,24.50
2018-11-02T03:58:08.757Z,19.80
2018-11-02T03:59:14.220Z,24.40
2018-11-02T04:00:20.177Z,23.90
2018-11-02T04:01:25.749Z,22.60
2018-11-02T04:02:31.246Z,25.93
2018-11-02T04:03:36.853Z,22.97
2018-11-02T04:04:42.327Z,23.70
2018-11-02T04:05:47.793Z,23.30
2018-11-02T04:06:53.274Z,27.10
2018-11-02T04:07:58.677Z,21.53
2018-11-02T04:09:04.738Z,23.93
2018-11-02T04:10:11.435Z,29.60
2018-11-02T04:11:16.864Z,23.70
2018-11-02T04:12:22.374Z,20.80
2018-11-02T04:13:27.821Z,24.13
2018-11-02T04:14:33.452Z,20.83
2018-11-02T04:15:43.952Z,20.80
2018-11-02T04:16:49.429Z,24.00
2018-11-02T04:17:54.953Z,26.43
2018-11-02T04:19:00.417Z,26.80
2018-11-02T04:20:07.912Z,19.43
2018-11-02T04:21:13.437Z,20.30
2018-11-02T04:22:19.014Z,23.90
2018-11-02T04:23:24.454Z,20.47
2018-11-02T04:24:29.867Z,21.77
2018-11-02T04:25:35.357Z,22.00
2018-11-02T04:26:41.310Z,21.93
2018-11-02T04:27:46.841Z,19.63
2018-11-02T04:28:52.447Z,23.93
2018-11-02T04:29:59.582Z,15.93
2018-11-02T04:31:05.898Z,18.60
2018-11-02T04:32:11.391Z,17.90
2018-11-02T04:33:16.854Z,15.83
2018-11-02T04:34:22.436Z,15.70
2018-11-02T04:35:28.906Z,17.90
2018-11-02T04:36:34.654Z,12.73
2018-11-02T04:37:40.149Z,11.90
2018-11-02T04:38:45.663Z,11.40
2018-11-02T04:39:51.157Z,9.13
2018-11-02T04:40:56.765Z,12.80
2018-11-02T04:42:02.251Z,12.60
2018-11-02T04:43:07.802Z,10.97
2018-11-02T04:44:13.373Z,11.57
2018-11-02T04:45:22.913Z,10.60
2018-11-02T04:46:32.263Z,7.40
2018-11-02T04:47:42.402Z,8.50
2018-11-02T04:48:56.628Z,7.20
2018-11-02T04:50:05.226Z,9.33
2018-11-02T04:51:10.753Z,5.93
2018-11-02T04:52:16.177Z,8.13
2018-11-02T04:53:21.861Z,8.73
2018-11-02T04:54:27.362Z,5.50
2018-11-02T04:55:32.880Z,6.50
2018-11-02T04:56:38.320Z,3.53
2018-11-02T04:57:43.853Z,4.20
2018-11-02T04:58:49.749Z,5.33
2018-11-02T04:59:55.229Z,5.80
2018-11-02T05:01:00.793Z,5.60
2018-11-02T05:02:06.499Z,3.50
2018-11-02T05:03:11.978Z,6.90
2018-11-02T05:04:17.529Z,9.60
2018-11-02T05:05:23.013Z,4.07
2018-11-02T05:06:28.509Z,5.77
2018-11-02T05:07:33.933Z,4.37
2018-11-02T05:08:39.340Z,3.90
2018-11-02T05:09:45.293Z,9.10
2018-11-02T05:10:50.740Z,6.97
2018-11-02T05:11:56.414Z,7.60
2018-11-02T05:13:01.907Z,11.10
2018-11-02T05:14:07.832Z,8.20
2018-11-02T05:15:13.301Z,8.33
2018-11-02T05:16:18.788Z,4.77
2018-11-02T05:17:24.305Z,6.67
2018-11-02T05:18:30.013Z,20.80
2018-11-02T05:19:35.521Z,5.40
2018-11-02T05:20:40.985Z,6.00
2018-11-02T05:21:46.408Z,6.37
2018-11-02T05:22:51.829Z,5.53
2018-11-02T05:23:57.276Z,6.50
2018-11-02T05:25:02.806Z,4.33
2018-11-02T05:26:08.632Z,13.20
2018-11-02T05:27:14.117Z,4.60
2018-11-02T05:28:19.524Z,4.50
2018-11-02T05:29:25.217Z,3.70
2018-11-02T05:30:30.683Z,3.77
2018-11-02T05:31:36.214Z,3.20
2018-11-02T05:32:41.866Z,2.60
2018-11-02T05:33:47.421Z,3.03
2018-11-02T05:34:52.949Z,3.33
2018-11-02T05:35:58.720Z,2.93
2018-11-02T05:37:04.196Z,3.63
2018-11-02T05:38:09.772Z,6.80
2018-11-02T05:39:15.267Z,4.93
2018-11-02T05:40:20.761Z,3.97
2018-11-02T05:41:26.310Z,4.70
2018-11-02T05:42:31.728Z,2.37
2018-11-02T05:43:37.240Z,3.57
2018-11-02T05:44:42.964Z,2.70
2018-11-02T05:45:48.445Z,3.23
2018-11-02T05:46:53.929Z,6.60
2018-11-02T05:47:59.450Z,5.57
2018-11-02T05:49:04.929Z,6.40
2018-11-02T05:50:10.468Z,3.67
2018-11-02T05:51:15.985Z,6.37
2018-11-02T05:52:21.432Z,5.67
2018-11-02T05:53:26.876Z,4.13
2018-11-02T05:54:32.446Z,5.23
2018-11-02T05:55:37.917Z,2.43
2018-11-02T05:56:43.525Z,6.37
2018-11-02T05:57:49.045Z,31.40
2018-11-02T05:58:54.448Z,11.90
2018-11-02T05:59:59.936Z,6.00
2018-11-02T06:01:06.357Z,5.60
2018-11-02T06:02:11.797Z,3.30
2018-11-02T06:03:17.205Z,3.10
2018-11-02T06:04:22.709Z,3.10
2018-11-02T06:05:28.195Z,8.53
2018-11-02T06:06:33.669Z,6.17
2018-11-02T06:07:39.509Z,6.60
2018-11-02T06:08:44.982Z,2.90
2018-11-02T06:09:50.480Z,6.90
2018-11-02T06:10:55.888Z,8.53
2018-11-02T06:12:01.444Z,3.20
2018-11-02T06:13:07.109Z,1.70
2018-11-02T06:14:12.533Z,6.90
2018-11-02T06:15:18.097Z,4.60
2018-11-02T06:16:23.590Z,5.63
2018-11-02T06:17:29.069Z,4.93
2018-11-02T06:18:34.670Z,5.50
2018-11-02T06:19:40.233Z,5.30
2018-11-02T06:20:45.687Z,4.73
2018-11-02T06:21:51.248Z,5.27
2018-11-02T06:22:56.704Z,6.23
2018-11-02T06:24:02.272Z,9.60
2018-11-02T06:25:08.422Z,4.97
2018-11-02T06:26:13.925Z,7.37
2018-11-02T06:27:19.413Z,4.47
2018-11-02T06:28:25.087Z,3.57
2018-11-02T06:29:30.576Z,9.03
2018-11-02T06:30:36.344Z,7.27
2018-11-02T06:31:43.015Z,6.67
2018-11-02T06:32:49.100Z,6.15
2018-11-02T06:33:54.568Z,14.07
2018-11-02T06:35:00.096Z,2.20
2018-11-02T06:36:05.872Z,6.00
2018-11-02T06:37:11.311Z,4.03
2018-11-02T06:38:16.892Z,4.60
2018-11-02T06:39:22.432Z,5.60
2018-11-02T06:40:28.052Z,4.97
2018-11-02T06:41:33.528Z,7.50
2018-11-02T06:42:39.005Z,7.73
2018-11-02T06:43:44.432Z,7.60
2018-11-02T06:44:49.960Z,4.63
2018-11-02T06:45:55.351Z,7.03
2018-11-02T06:47:00.856Z,5.30
2018-11-02T06:48:06.600Z,4.80
2018-11-02T06:49:12.114Z,6.10
2018-11-02T06:50:17.662Z,10.10
2018-11-02T06:51:23.172Z,6.13
2018-11-02T06:52:28.642Z,8.97
2018-11-02T06:53:34.137Z,3.30
2018-11-02T06:54:39.622Z,8.83
2018-11-02T06:55:45.392Z,4.07
2018-11-02T06:56:51.014Z,4.37
2018-11-02T06:57:56.662Z,6.10
2018-11-02T06:59:02.142Z,9.13
2018-11-02T07:00:11.905Z,7.50
2018-11-02T07:01:17.182Z,4.20
2018-11-02T07:02:22.774Z,7.33
2018-11-02T07:03:28.312Z,5.90
2018-11-02T07:04:33.778Z,10.17
2018-11-02T07:05:39.312Z,5.07
2018-11-02T07:06:44.786Z,2.90
2018-11-02T07:07:50.330Z,2.93
2018-11-02T07:08:55.764Z,8.33
2018-11-02T07:10:01.255Z,6.73
2018-11-02T07:11:06.769Z,12.27
2018-11-02T07:12:12.217Z,8.20
2018-11-02T07:13:17.741Z,5.87
2018-11-02T07:14:23.215Z,7.43
2018-11-02T07:15:28.755Z,2.83
2018-11-02T07:16:34.257Z,7.43
2018-11-02T07:17:39.746Z,8.10
2018-11-02T07:18:45.216Z,3.83
2018-11-02T07:19:50.628Z,5.40
2018-11-02T07:20:56.056Z,12.67
2018-11-02T07:22:01.574Z,6.33
2018-11-02T07:23:08.310Z,5.47
2018-11-02T07:24:13.857Z,13.00
2018-11-02T07:25:19.391Z,7.53
2018-11-02T07:26:25.236Z,14.00
2018-11-02T07:27:31.038Z,5.83
2018-11-02T07:28:36.602Z,3.83
2018-11-02T07:29:42.024Z,5.47
2018-11-02T07:30:47.430Z,15.93
2018-11-02T07:31:52.864Z,9.33
2018-11-02T07:32:58.386Z,10.50
2018-11-02T07:34:03.860Z,8.63
2018-11-02T07:35:10.256Z,5.27
2018-11-02T07:36:15.690Z,11.87
2018-11-02T07:37:21.108Z,11.33
2018-11-02T07:38:26.575Z,9.20
2018-11-02T07:39:33.555Z,7.93
2018-11-02T07:40:38.972Z,7.70
2018-11-02T07:41:44.409Z,15.63
2018-11-02T07:42:50.044Z,6.90
2018-11-02T07:43:55.721Z,10.13
2018-11-02T07:45:01.226Z,10.63
2018-11-02T07:46:06.834Z,6.50
2018-11-02T07:47:12.313Z,8.43
2018-11-02T07:48:17.734Z,8.30
2018-11-02T07:49:23.295Z,10.77
2018-11-02T07:50:28.749Z,9.50
2018-11-02T07:51:34.212Z,9.87
2018-11-02T07:52:39.770Z,4.80
2018-11-02T07:53:45.093Z,14.77
2018-11-02T07:54:50.606Z,11.73
2018-11-02T07:55:56.032Z,4.63
2018-11-02T07:57:01.480Z,3.97
2018-11-02T07:58:07.178Z,10.30
2018-11-02T07:59:12.708Z,7.27
2018-11-02T08:00:18.684Z,9.73
2018-11-02T08:01:24.124Z,5.23
2018-11-02T08:02:29.615Z,8.10
2018-11-02T08:03:35.199Z,6.33
2018-11-02T08:04:40.672Z,8.27
2018-11-02T08:05:46.256Z,5.70
2018-11-02T08:06:51.782Z,17.70
2018-11-02T08:07:57.380Z,11.83
2018-11-02T08:09:02.842Z,10.87
2018-11-02T08:10:08.985Z,8.40
2018-11-02T08:11:14.471Z,6.77
2018-11-02T08:12:19.848Z,12.13
2018-11-02T08:13:25.278Z,10.87
2018-11-02T08:14:30.808Z,12.77
2018-11-02T08:15:36.290Z,17.03
2018-11-02T08:16:42.043Z,18.17
2018-11-02T08:17:47.621Z,12.07
2018-11-02T08:18:52.964Z,8.00
2018-11-02T08:19:58.441Z,14.30
2018-11-02T08:21:03.957Z,11.80
2018-11-02T08:22:09.388Z,9.17
2018-11-02T08:23:15.065Z,8.13
2018-11-02T08:24:20.521Z,13.23
2018-11-02T08:25:25.938Z,12.53
2018-11-02T08:26:31.462Z,7.40
2018-11-02T08:27:36.901Z,9.20
2018-11-02T08:28:42.421Z,7.37
2018-11-02T08:29:47.912Z,12.07
2018-11-02T08:30:53.411Z,7.43
2018-11-02T08:31:58.897Z,5.53
2018-11-02T08:33:04.356Z,11.57
2018-11-02T08:34:09.817Z,9.53
2018-11-02T08:35:15.297Z,11.07
2018-11-02T08:36:20.758Z,7.37
2018-11-02T08:37:26.209Z,9.03
2018-11-02T08:38:31.682Z,8.13
2018-11-02T08:39:37.156Z,6.53
2018-11-02T08:40:42.734Z,8.33
2018-11-02T08:41:48.185Z,10.17
2018-11-02T08:42:53.646Z,11.87
2018-11-02T08:43:59.114Z,9.23
2018-11-02T08:45:04.701Z,9.17
2018-11-02T08:46:10.145Z,6.43
2018-11-02T08:47:15.616Z,4.77
2018-11-02T08:48:21.210Z,12.60
2018-11-02T08:49:26.741Z,11.70
2018-11-02T08:50:32.529Z,11.93
2018-11-02T08:51:38.099Z,13.00
2018-11-02T08:52:43.768Z,6.30
2018-11-02T08:53:49.278Z,7.63
2018-11-02T08:54:54.873Z,8.63
2018-11-02T08:56:00.358Z,5.40
2018-11-02T08:57:05.959Z,13.17
2018-11-02T08:58:11.488Z,13.87
2018-11-02T08:59:17.017Z,12.20
2018-11-02T09:00:22.427Z,10.03
2018-11-02T09:01:27.943Z,7.17
2018-11-02T09:02:33.445Z,6.43
2018-11-02T09:03:38.884Z,7.77
2018-11-02T09:04:44.438Z,14.10
2018-11-02T09:05:49.955Z,9.53
2018-11-02T09:06:55.471Z,12.33
2018-11-02T09:08:01.181Z,15.13
2018-11-02T09:09:08.897Z,7.10
2018-11-02T09:10:14.397Z,5.53
2018-11-02T09:11:20.060Z,11.60
2018-11-02T09:12:25.586Z,7.83
2018-11-02T09:13:31.132Z,8.50
2018-11-02T09:14:36.630Z,7.93
2018-11-02T09:15:42.120Z,6.10
2018-11-02T09:16:47.657Z,7.40
2018-11-02T09:17:53.257Z,4.77
2018-11-02T09:19:04.969Z,8.97
2018-11-02T09:20:11.116Z,10.30
2018-11-02T09:21:16.848Z,13.43
2018-11-02T09:22:22.621Z,5.53
2018-11-02T09:23:28.190Z,4.07
2018-11-02T09:24:33.770Z,11.10
2018-11-02T09:25:39.325Z,7.37
2018-11-02T09:26:44.852Z,6.83
2018-11-02T09:27:50.494Z,9.90
2018-11-02T09:28:56.740Z,10.80
2018-11-02T09:30:02.229Z,11.53
2018-11-02T09:31:07.736Z,13.17
2018-11-02T09:32:13.262Z,12.63
2018-11-02T09:33:18.786Z,5.33
2018-11-02T09:34:24.425Z,7.47
2018-11-02T09:35:30.123Z,13.07
2018-11-02T09:36:35.554Z,8.03
2018-11-02T09:37:41.344Z,9.90
2018-11-02T09:38:46.928Z,15.77
2018-11-02T09:39:52.427Z,7.20
2018-11-02T09:40:57.977Z,6.90
2018-11-02T09:42:03.512Z,7.80
2018-11-02T09:43:08.981Z,7.07
2018-11-02T09:44:14.539Z,5.77
2018-11-02T09:45:20.109Z,7.80
2018-11-02T09:46:25.594Z,4.83
2018-11-02T09:47:31.119Z,8.93
2018-11-02T09:48:36.595Z,6.37
2018-11-02T09:49:42.077Z,8.00
2018-11-02T09:50:47.629Z,8.87
2018-11-02T09:51:53.123Z,11.33
2018-11-02T09:52:58.683Z,7.03
2018-11-02T09:54:04.160Z,7.43
2018-11-02T09:55:12.785Z,5.90
2018-11-02T09:56:18.368Z,7.60
2018-11-02T09:57:23.910Z,4.80
2018-11-02T09:58:29.380Z,4.80
2018-11-02T09:59:34.844Z,9.70
2018-11-02T10:00:40.293Z,8.40
2018-11-02T10:01:45.793Z,7.10
2018-11-02T10:02:51.356Z,8.83
2018-11-02T10:03:57.000Z,5.93
2018-11-02T10:05:02.504Z,8.53
2018-11-02T10:06:08.034Z,7.73
2018-11-02T10:07:13.740Z,9.40
2018-11-02T10:08:19.368Z,8.20
2018-11-02T10:09:24.889Z,10.57
2018-11-02T10:10:30.370Z,4.90
2018-11-02T10:11:35.840Z,11.07
2018-11-02T10:12:41.510Z,9.97
2018-11-02T10:13:46.973Z,6.57
2018-11-02T10:14:52.452Z,7.47
2018-11-02T10:15:58.094Z,10.80
2018-11-02T10:17:03.563Z,9.97
2018-11-02T10:18:09.195Z,10.47
2018-11-02T10:19:14.758Z,10.17
2018-11-02T10:20:20.316Z,12.00
2018-11-02T10:21:26.120Z,5.10
2018-11-02T10:22:31.625Z,13.93
2018-11-02T10:23:37.142Z,9.27
2018-11-02T10:24:42.649Z,7.07
2018-11-02T10:25:48.217Z,9.47
2018-11-02T10:26:53.824Z,5.50
2018-11-02T10:27:59.418Z,5.50
2018-11-02T10:29:05.615Z,10.40
2018-11-02T10:30:13.170Z,7.83
2018-11-02T10:31:18.800Z,14.43
2018-11-02T10:32:24.496Z,8.83
2018-11-02T10:33:30.118Z,7.90
2018-11-02T10:34:35.701Z,10.07
2018-11-02T10:35:41.539Z,5.90
2018-11-02T10:36:46.973Z,12.10
2018-11-02T10:37:52.881Z,6.83
2018-11-02T10:38:59.158Z,14.67
2018-11-02T10:40:06.814Z,6.50
2018-11-02T10:41:16.847Z,9.90
2018-11-02T10:42:22.561Z,11.40
2018-11-02T10:43:30.200Z,8.03
2018-11-02T10:44:41.147Z,9.70
2018-11-02T10:45:48.692Z,10.97
2018-11-02T10:46:54.152Z,13.03
2018-11-02T10:48:00.041Z,10.00
2018-11-02T10:49:05.843Z,6.63
2018-11-02T10:50:11.340Z,7.63
2018-11-02T10:51:16.892Z,14.33
2018-11-02T10:52:22.336Z,5.23
2018-11-02T10:53:27.937Z,16.40
2018-11-02T10:54:33.899Z,11.17
2018-11-02T10:55:39.446Z,4.70
2018-11-02T10:56:45.144Z,10.33
2018-11-02T10:57:50.625Z,10.40
2018-11-02T10:58:56.105Z,6.40
2018-11-02T11:00:01.666Z,6.00
2018-11-02T11:01:12.565Z,11.43
2018-11-02T11:02:24.040Z,8.63
2018-11-02T11:03:29.638Z,7.17
2018-11-02T11:04:35.379Z,7.47
2018-11-02T11:05:40.982Z,20.17
2018-11-02T11:06:46.543Z,24.63
2018-11-02T11:07:52.029Z,11.70
2018-11-02T11:08:57.585Z,13.47
2018-11-02T11:10:03.076Z,10.60
2018-11-02T11:11:08.577Z,7.47
2018-11-02T11:12:14.131Z,8.70
2018-11-02T11:13:20.010Z,10.00
2018-11-02T11:14:25.218Z,7.37
2018-11-02T11:15:30.831Z,6.50
2018-11-02T11:16:36.391Z,5.77
2018-11-02T11:17:41.893Z,6.20
2018-11-02T11:18:47.433Z,7.80
2018-11-02T11:19:52.916Z,9.67
2018-11-02T11:20:58.445Z,15.33
2018-11-02T11:22:04.019Z,17.37
2018-11-02T11:23:09.608Z,13.47
2018-11-02T11:24:15.115Z,8.70
2018-11-02T11:25:20.581Z,7.10
2018-11-02T11:26:26.147Z,5.70
2018-11-02T11:27:31.718Z,9.73
2018-11-02T11:28:37.287Z,5.67
2018-11-02T11:29:42.829Z,9.43
2018-11-02T11:30:48.334Z,12.93
2018-11-02T11:31:53.869Z,4.93
2018-11-02T11:32:59.375Z,7.33
2018-11-02T11:34:05.697Z,4.93
2018-11-02T11:35:13.373Z,5.17
2018-11-02T11:36:18.872Z,6.27
2018-11-02T11:37:24.462Z,10.33
2018-11-02T11:38:30.086Z,6.70
2018-11-02T11:39:35.591Z,6.63
2018-11-02T11:40:41.222Z,6.70
2018-11-02T11:41:46.757Z,11.27
2018-11-02T11:42:52.403Z,8.30
2018-11-02T11:43:57.896Z,7.37
2018-11-02T11:45:03.568Z,6.43
2018-11-02T11:46:09.105Z,11.20
2018-11-02T11:47:14.585Z,5.17
2018-11-02T11:48:20.053Z,5.17
2018-11-02T11:49:25.621Z,9.17
2018-11-02T11:50:31.233Z,5.40
2018-11-02T11:51:36.786Z,7.30
2018-11-02T11:52:42.933Z,7.23
2018-11-02T11:53:48.417Z,7.17
2018-11-02T11:54:54.145Z,9.43
2018-11-02T11:55:59.733Z,6.00
2018-11-02T11:57:05.208Z,9.63
2018-11-02T11:58:10.886Z,9.60
2018-11-02T11:59:16.506Z,6.47
2018-11-02T12:00:23.369Z,9.87
2018-11-02T12:01:28.866Z,10.13
2018-11-02T12:02:34.409Z,11.70
2018-11-02T12:03:39.906Z,4.20
2018-11-02T12:04:45.529Z,4.93
2018-11-02T12:05:51.084Z,4.60
2018-11-02T12:06:56.557Z,6.60
2018-11-02T12:08:02.014Z,9.47
2018-11-02T12:09:09.059Z,13.87
2018-11-02T12:10:18.801Z,8.83
2018-11-02T12:11:24.367Z,7.03
2018-11-02T12:12:29.943Z,8.87
2018-11-02T12:13:35.468Z,6.50
2018-11-02T12:14:40.932Z,4.50
2018-11-02T12:15:46.423Z,7.10
2018-11-02T12:16:52.006Z,4.37
2018-11-02T12:17:57.538Z,5.30
2018-11-02T12:19:03.009Z,4.33
2018-11-02T12:20:13.037Z,4.20
2018-11-02T12:21:18.541Z,12.30
2018-11-02T12:22:24.145Z,8.97
2018-11-02T12:23:29.719Z,6.80
2018-11-02T12:24:35.225Z,6.67
2018-11-02T12:25:40.701Z,4.30
2018-11-02T12:26:46.164Z,8.23
2018-11-02T12:27:51.758Z,9.20
2018-11-02T12:28:57.320Z,9.83
2018-11-02T12:30:02.726Z,3.90
2018-11-02T12:31:08.266Z,4.47
2018-11-02T12:32:13.874Z,7.77
2018-11-02T12:33:19.441Z,6.37
2018-11-02T12:34:24.941Z,5.53
2018-11-02T12:35:30.401Z,8.60
2018-11-02T12:36:35.850Z,9.90
2018-11-02T12:37:41.333Z,5.40
2018-11-02T12:38:46.879Z,7.17
2018-11-02T12:39:52.384Z,6.50
2018-11-02T12:40:57.885Z,15.93
2018-11-02T12:42:03.404Z,6.60
2018-11-02T12:43:09.021Z,5.40
2018-11-02T12:44:14.599Z,18.70
2018-11-02T12:45:21.162Z,10.10
2018-11-02T12:46:26.649Z,6.33
2018-11-02T12:47:32.120Z,5.37
2018-11-02T12:48:37.791Z,4.40
2018-11-02T12:49:43.495Z,8.40
2018-11-02T12:50:48.716Z,6.53
2018-11-02T12:51:54.193Z,5.43
2018-11-02T12:53:00.501Z,8.60
2018-11-02T12:54:06.272Z,7.10
2018-11-02T12:55:12.297Z,6.00
2018-11-02T12:56:17.754Z,4.80
2018-11-02T12:57:23.272Z,8.53
2018-11-02T12:58:28.813Z,7.13
2018-11-02T12:59:34.334Z,11.00
2018-11-02T13:00:39.852Z,4.20
2018-11-02T13:01:45.341Z,8.50
2018-11-02T13:02:51.516Z,6.40
2018-11-02T13:03:57.024Z,6.70
2018-11-02T13:05:02.600Z,4.60
2018-11-02T13:06:08.170Z,2.37
2018-11-02T13:07:13.718Z,9.77
2018-11-02T13:08:19.181Z,9.00
2018-11-02T13:09:24.853Z,6.87
2018-11-02T13:10:30.453Z,3.83
2018-11-02T13:11:36.106Z,7.00
2018-11-02T13:12:41.615Z,5.57
2018-11-02T13:13:47.093Z,4.70
2018-11-02T13:14:52.535Z,4.43
2018-11-02T13:15:58.087Z,9.40
2018-11-02T13:17:03.855Z,6.40
2018-11-02T13:18:09.429Z,9.13
2018-11-02T13:19:14.928Z,6.37
2018-11-02T13:20:20.558Z,5.03
2018-11-02T13:21:26.107Z,5.33
2018-11-02T13:22:31.610Z,4.10
2018-11-02T13:23:37.084Z,8.50
2018-11-02T13:24:42.677Z,6.03
2018-11-02T13:25:48.313Z,5.77
2018-11-02T13:26:53.834Z,10.13
2018-11-02T13:27:59.385Z,7.33
2018-11-02T13:29:04.894Z,10.83
2018-11-02T13:30:11.020Z,13.83
2018-11-02T13:31:16.417Z,7.77
2018-11-02T13:32:21.860Z,6.47
2018-11-02T13:33:27.340Z,7.20
2018-11-02T13:34:32.777Z,8.03
2018-11-02T13:35:38.331Z,11.70
2018-11-02T13:36:43.943Z,3.00
2018-11-02T13:37:50.227Z,4.10
2018-11-02T13:38:55.772Z,4.97
2018-11-02T13:40:01.295Z,7.20
2018-11-02T13:41:06.913Z,6.37
2018-11-02T13:42:12.406Z,4.40
2018-11-02T13:43:17.935Z,7.03
2018-11-02T13:44:23.391Z,4.67
2018-11-02T13:45:28.861Z,10.23
2018-11-02T13:46:34.370Z,10.57
2018-11-02T13:47:40.273Z,4.57
2018-11-02T13:48:45.728Z,9.67
2018-11-02T13:49:51.252Z,7.07
2018-11-02T13:50:56.666Z,6.23
2018-11-02T13:52:02.159Z,4.90
2018-11-02T13:53:08.130Z,5.20
2018-11-02T13:54:13.777Z,7.03
2018-11-02T13:55:19.377Z,6.70
2018-11-02T13:56:24.859Z,4.43
2018-11-02T13:57:30.364Z,8.07
2018-11-02T13:58:35.831Z,9.73
2018-11-02T13:59:41.317Z,7.50
2018-11-02T14:00:46.804Z,6.93
2018-11-02T14:01:52.261Z,6.80
2018-11-02T14:02:57.824Z,4.13
2018-11-02T14:04:03.273Z,8.50
2018-11-02T14:05:10.950Z,3.73
2018-11-02T14:06:16.440Z,10.30
2018-11-02T14:07:21.916Z,6.07
2018-11-02T14:08:27.476Z,12.20
2018-11-02T14:09:32.965Z,4.50
2018-11-02T14:10:38.390Z,7.47
2018-11-02T14:11:44.004Z,4.90
2018-11-02T14:12:49.472Z,4.60
2018-11-02T14:13:55.021Z,7.97
2018-11-02T14:15:00.510Z,3.60
2018-11-02T14:16:06.038Z,3.90
2018-11-02T14:17:11.715Z,4.27
2018-11-02T14:18:17.253Z,8.17
2018-11-02T14:19:22.819Z,3.60
2018-11-02T14:20:28.373Z,4.90